createdAt,value
2023-04-06T00:01:05.229Z,101616.50
2023-04-06T00:03:32.267Z,101610.31
2023-04-06T00:05:59.183Z,101605.06
2023-04-06T00:08:27.542Z,101606.34
2023-04-06T00:10:54.412Z,101613.72
2023-04-06T00:13:21.638Z,101615.75
2023-04-06T00:15:48.547Z,101617.56
2023-04-06T00:18:15.604Z,101617.88
2023-04-06T00:20:42.594Z,101620.56
2023-04-06T00:23:09.487Z,101624.28
2023-04-06T00:25:36.500Z,101626.00
2023-04-06T00:28:04.677Z,101622.47
2023-04-06T00:30:31.611Z,101619.03
2023-04-06T00:32:58.539Z,101618.63
2023-04-06T00:35:25.510Z,101622.25
2023-04-06T00:37:52.442Z,101613.44
2023-04-06T00:40:19.755Z,101615.81
2023-04-06T00:42:46.804Z,101610.66
2023-04-06T00:45:13.728Z,101615.38
2023-04-06T00:47:41.227Z,101610.31
2023-04-06T00:50:08.900Z,101613.19
2023-04-06T00:52:36.762Z,101608.47
2023-04-06T00:55:05.792Z,101609.34
2023-04-06T00:57:34.855Z,101611.56
2023-04-06T01:00:01.896Z,101618.06
2023-04-06T01:02:29.035Z,101612.72
2023-04-06T01:04:56.385Z,101605.66
2023-04-06T01:07:28.630Z,101606.09
2023-04-06T01:10:10.709Z,101609.88
2023-04-06T01:12:43.395Z,101603.03
2023-04-06T01:15:20.895Z,101605.06
2023-04-06T01:17:51.384Z,101598.94
2023-04-06T01:20:18.844Z,101594.66
2023-04-06T01:22:45.991Z,101601.91
2023-04-06T01:25:13.684Z,101610.38
2023-04-06T01:28:03.059Z,101612.66
2023-04-06T01:30:48.799Z,101603.78
2023-04-06T01:33:29.568Z,101596.06
2023-04-06T01:36:04.772Z,101599.50
2023-04-06T01:38:32.070Z,101597.78
2023-04-06T01:40:59.000Z,101599.72
2023-04-06T01:43:30.286Z,101598.72
2023-04-06T01:46:06.769Z,101598.84
2023-04-06T01:48:40.183Z,101594.47
2023-04-06T01:51:17.781Z,101591.88
2023-04-06T01:53:53.030Z,101582.34
2023-04-06T01:56:23.581Z,101588.75
2023-04-06T01:59:00.437Z,101584.63
2023-04-06T02:01:32.545Z,101585.69
2023-04-06T02:03:59.567Z,101589.13
2023-04-06T02:06:26.474Z,101589.97
2023-04-06T02:08:53.517Z,101589.22
2023-04-06T02:11:20.862Z,101592.94
2023-04-06T02:13:51.238Z,101588.66
2023-04-06T02:16:18.898Z,101591.22
2023-04-06T02:18:47.064Z,101579.88
2023-04-06T02:21:14.090Z,101573.78
2023-04-06T02:23:41.014Z,101572.81
2023-04-06T02:26:08.166Z,101579.03
2023-04-06T02:28:35.126Z,101574.63
2023-04-06T02:31:02.276Z,101573.78
2023-04-06T02:33:30.074Z,101563.16
2023-04-06T02:35:57.502Z,101567.78
2023-04-06T02:38:24.529Z,101562.53
2023-04-06T02:40:52.846Z,101564.44
2023-04-06T02:43:23.032Z,101564.63
2023-04-06T02:45:54.391Z,101567.50
2023-04-06T02:48:23.935Z,101570.56
2023-04-06T02:50:50.976Z,101565.41
2023-04-06T02:53:17.991Z,101576.28
2023-04-06T02:55:45.131Z,101563.91
2023-04-06T02:58:12.156Z,101563.22
2023-04-06T03:00:45.712Z,101566.09
2023-04-06T03:03:12.854Z,101568.00
2023-04-06T03:05:40.924Z,101561.91
2023-04-06T03:08:08.479Z,101557.50
2023-04-06T03:10:41.571Z,101564.88
2023-04-06T03:13:08.775Z,101559.53
2023-04-06T03:15:56.847Z,101563.16
2023-04-06T03:18:25.662Z,101555.03
2023-04-06T03:20:56.794Z,101560.38
2023-04-06T03:23:30.071Z,101566.59
2023-04-06T03:26:00.402Z,101556.09
2023-04-06T03:28:27.533Z,101547.41
2023-04-06T03:30:58.105Z,101549.22
2023-04-06T03:33:57.223Z,101560.09
2023-04-06T03:36:28.869Z,101559.25
2023-04-06T03:41:59.977Z,101559.81
2023-04-06T03:44:38.839Z,101552.75
2023-04-06T03:47:07.025Z,101561.91
2023-04-06T03:49:34.021Z,101556.56
2023-04-06T03:52:02.211Z,101557.59
2023-04-06T03:54:29.874Z,101559.63
2023-04-06T03:56:57.458Z,101547.28
2023-04-06T03:59:27.433Z,101554.56
2023-04-06T04:01:54.593Z,101553.19
2023-04-06T04:04:21.551Z,101560.81
2023-04-06T04:06:48.822Z,101556.63
2023-04-06T04:09:15.961Z,101564.72
2023-04-06T04:11:43.091Z,101569.09
2023-04-06T04:14:10.063Z,101567.50
2023-04-06T04:16:37.180Z,101566.72
2023-04-06T04:19:04.121Z,101563.28
2023-04-06T04:21:32.568Z,101572.25
2023-04-06T04:24:03.984Z,101565.00
2023-04-06T04:26:34.173Z,101574.63
2023-04-06T04:29:01.212Z,101567.56
2023-04-06T04:31:28.249Z,101572.06
2023-04-06T04:34:01.358Z,101571.47
2023-04-06T04:36:31.419Z,101571.56
2023-04-06T04:39:02.610Z,101570.88
2023-04-06T04:41:33.087Z,101573.63
2023-04-06T04:44:01.070Z,101578.09
2023-04-06T04:46:28.403Z,101576.41
2023-04-06T04:48:55.623Z,101581.25
2023-04-06T04:51:22.860Z,101584.84
2023-04-06T04:54:06.785Z,101585.91
2023-04-06T04:56:34.587Z,101592.41
2023-04-06T04:59:22.773Z,101583.63
2023-04-06T05:01:57.302Z,101593.91
2023-04-06T05:04:33.853Z,101598.38
2023-04-06T05:07:07.507Z,101601.03
2023-04-06T05:09:36.583Z,101607.22
2023-04-06T05:12:04.118Z,101609.81
2023-04-06T05:14:36.298Z,101603.81
2023-04-06T05:17:06.788Z,101607.22
2023-04-06T05:19:33.778Z,101615.16
2023-04-06T05:22:01.705Z,101604.47
2023-04-06T05:24:29.769Z,101605.41
2023-04-06T05:26:57.162Z,101613.22
2023-04-06T05:29:24.932Z,101606.00
2023-04-06T05:31:52.475Z,101605.16
2023-04-06T05:34:19.995Z,101606.69
2023-04-06T05:36:48.816Z,101608.34
2023-04-06T05:39:21.985Z,101605.50
2023-04-06T05:41:51.705Z,101608.97
2023-04-06T05:44:29.244Z,101609.78
2023-04-06T05:47:04.596Z,101615.13
2023-04-06T05:49:31.901Z,101619.63
2023-04-06T05:51:59.304Z,101618.66
2023-04-06T05:54:26.421Z,101627.16
2023-04-06T05:56:59.588Z,101622.59
2023-04-06T05:59:26.670Z,101641.28
2023-04-06T06:01:54.886Z,101636.81
2023-04-06T06:04:23.166Z,101635.75
2023-04-06T06:06:53.619Z,101639.34
2023-04-06T06:09:27.272Z,101644.88
2023-04-06T06:12:06.337Z,101638.53
2023-04-06T06:14:33.587Z,101648.16
2023-04-06T06:17:00.842Z,101642.84
2023-04-06T06:19:28.964Z,101652.22
2023-04-06T06:22:02.719Z,101648.31
2023-04-06T06:24:31.627Z,101648.03
2023-04-06T06:27:00.300Z,101657.50
2023-04-06T06:29:29.986Z,101646.97
2023-04-06T06:31:57.024Z,101652.97
2023-04-06T06:34:24.928Z,101657.44
2023-04-06T06:36:52.930Z,101654.78
2023-04-06T06:39:20.725Z,101656.66
2023-04-06T06:41:48.859Z,101661.34
2023-04-06T06:44:17.830Z,101666.97
2023-04-06T06:46:44.739Z,101674.75
2023-04-06T06:49:13.458Z,101666.53
2023-04-06T06:51:40.520Z,101667.56
2023-04-06T06:54:08.522Z,101666.63
2023-04-06T06:56:38.066Z,101663.19
2023-04-06T06:59:07.051Z,101669.28
2023-04-06T07:01:36.192Z,101676.56
2023-04-06T07:04:03.287Z,101666.91
2023-04-06T07:06:30.540Z,101665.50
2023-04-06T07:08:57.571Z,101671.50
2023-04-06T07:11:24.507Z,101663.66
2023-04-06T07:13:51.476Z,101660.75
2023-04-06T07:16:18.377Z,101658.53
2023-04-06T07:18:45.298Z,101663.81
2023-04-06T07:21:12.308Z,101669.72
2023-04-06T07:23:39.287Z,101664.41
2023-04-06T07:26:07.766Z,101671.19
2023-04-06T07:28:34.972Z,101670.72
2023-04-06T07:31:02.790Z,101667.31
2023-04-06T07:33:31.072Z,101678.84
2023-04-06T07:36:00.016Z,101687.41
2023-04-06T07:38:27.077Z,101689.03
2023-04-06T07:40:54.276Z,101697.16
2023-04-06T07:43:21.356Z,101695.13
2023-04-06T07:45:48.949Z,101697.22
2023-04-06T07:48:17.444Z,101693.94
2023-04-06T07:50:45.087Z,101695.63
2023-04-06T07:53:12.115Z,101696.84
2023-04-06T07:55:39.862Z,101700.38
2023-04-06T07:58:06.846Z,101706.09
2023-04-06T08:00:34.105Z,101706.44
2023-04-06T08:03:01.170Z,101700.50
2023-04-06T08:05:28.717Z,101704.78
2023-04-06T08:07:55.815Z,101698.06
2023-04-06T08:10:22.754Z,101703.72
2023-04-06T08:12:49.708Z,101702.66
2023-04-06T08:15:19.154Z,101702.69
2023-04-06T08:17:46.224Z,101697.84
2023-04-06T08:20:13.189Z,101697.19
2023-04-06T08:22:40.084Z,101698.94
2023-04-06T08:25:07.363Z,101702.22
2023-04-06T08:27:34.348Z,101700.22
2023-04-06T08:30:01.310Z,101704.25
2023-04-06T08:32:28.312Z,101707.00
2023-04-06T08:34:56.511Z,101705.84
2023-04-06T08:37:23.841Z,101713.31
2023-04-06T08:39:51.418Z,101707.31
2023-04-06T08:42:21.727Z,101718.41
2023-04-06T08:44:52.500Z,101714.41
2023-04-06T08:47:21.689Z,101714.97
2023-04-06T08:49:51.915Z,101714.16
2023-04-06T08:52:20.092Z,101703.44
2023-04-06T08:54:47.198Z,101711.91
2023-04-06T08:57:14.683Z,101714.56
2023-04-06T08:59:42.268Z,101714.78
2023-04-06T09:02:18.270Z,101722.81
2023-04-06T09:04:48.927Z,101718.31
2023-04-06T09:07:17.015Z,101722.28
2023-04-06T09:09:49.126Z,101724.97
2023-04-06T09:12:30.494Z,101720.63
2023-04-06T09:14:59.170Z,101717.38
2023-04-06T09:17:34.807Z,101704.50
2023-04-06T09:20:03.479Z,101717.81
2023-04-06T09:22:40.782Z,101718.38
2023-04-06T09:25:09.221Z,101724.84
2023-04-06T09:27:38.001Z,101725.47
2023-04-06T09:30:17.022Z,101717.25
2023-04-06T09:32:49.046Z,101719.69
2023-04-06T09:35:16.521Z,101726.06
2023-04-06T09:37:44.960Z,101725.78
2023-04-06T09:40:12.517Z,101714.44
2023-04-06T09:42:42.672Z,101722.72
2023-04-06T09:45:10.316Z,101723.69
2023-04-06T09:47:38.273Z,101721.56
2023-04-06T09:50:06.250Z,101731.28
2023-04-06T09:52:39.615Z,101736.97
2023-04-06T09:55:09.183Z,101737.53
2023-04-06T09:57:51.697Z,101736.47
2023-04-06T10:00:23.359Z,101741.34
2023-04-06T10:02:59.437Z,101748.53
2023-04-06T10:05:41.511Z,101727.94
2023-04-06T10:08:11.258Z,101723.25
2023-04-06T10:10:38.724Z,101739.31
2023-04-06T10:13:06.959Z,101734.69
2023-04-06T10:15:35.202Z,101729.41
2023-04-06T10:18:03.513Z,101735.31
2023-04-06T10:20:52.860Z,101732.97
2023-04-06T10:23:31.366Z,101725.47
2023-04-06T10:26:00.321Z,101724.34
2023-04-06T10:28:31.352Z,101724.78
2023-04-06T10:31:00.193Z,101714.94
2023-04-06T10:33:27.291Z,101719.47
2023-04-06T10:35:55.067Z,101726.47
2023-04-06T10:38:23.162Z,101710.16
2023-04-06T10:40:50.405Z,101715.88
2023-04-06T10:43:22.272Z,101706.88
2023-04-06T10:46:01.551Z,101700.31
2023-04-06T10:48:42.811Z,101708.78
2023-04-06T10:51:12.609Z,101703.59
2023-04-06T10:53:39.625Z,101709.31
2023-04-06T10:56:14.602Z,101710.78
2023-04-06T10:58:48.193Z,101709.97
2023-04-06T11:01:19.642Z,101706.00
2023-04-06T11:03:48.182Z,101699.72
2023-04-06T11:06:23.716Z,101706.88
2023-04-06T11:08:52.062Z,101698.06
2023-04-06T11:11:21.374Z,101702.97
2023-04-06T11:13:50.006Z,101699.81
2023-04-06T11:16:27.539Z,101692.22
2023-04-06T11:19:01.967Z,101689.75
2023-04-06T11:21:38.054Z,101697.41
2023-04-06T11:24:20.454Z,101691.25
2023-04-06T11:26:53.986Z,101681.31
2023-04-06T11:29:26.670Z,101691.75
2023-04-06T11:31:55.700Z,101694.19
2023-04-06T11:34:34.980Z,101693.69
2023-04-06T11:37:07.115Z,101689.09
2023-04-06T11:39:51.785Z,101688.31
2023-04-06T11:42:26.335Z,101685.22
2023-04-06T11:44:56.214Z,101688.38
2023-04-06T11:47:31.610Z,101689.13
2023-04-06T11:50:10.942Z,101691.03
2023-04-06T11:52:39.412Z,101685.69
2023-04-06T11:55:17.762Z,101687.13
2023-04-06T11:57:45.139Z,101681.16
2023-04-06T12:00:13.384Z,101674.31
2023-04-06T12:02:41.029Z,101665.78
2023-04-06T12:05:12.762Z,101683.69
2023-04-06T12:10:07.412Z,101658.56
2023-04-06T12:12:34.405Z,101653.66
2023-04-06T12:15:01.394Z,101656.28
2023-04-06T12:17:28.406Z,101670.50
2023-04-06T12:20:01.805Z,101661.91
2023-04-06T12:22:32.126Z,101660.31
2023-04-06T12:24:59.066Z,101654.34
2023-04-06T12:27:26.383Z,101640.72
2023-04-06T12:29:53.420Z,101649.13
2023-04-06T12:32:20.567Z,101654.25
2023-04-06T12:34:47.450Z,101654.31
2023-04-06T12:37:14.385Z,101653.56
2023-04-06T12:39:41.686Z,101647.81
2023-04-06T12:42:09.021Z,101648.69
2023-04-06T12:44:36.114Z,101649.25
2023-04-06T12:47:03.706Z,101645.84
2023-04-06T12:49:31.628Z,101638.72
2023-04-06T12:51:59.353Z,101646.59
2023-04-06T12:54:27.913Z,101662.75
2023-04-06T12:56:54.888Z,101636.59
2023-04-06T12:59:22.142Z,101636.50
2023-04-06T13:01:51.937Z,101640.47
2023-04-06T13:04:19.011Z,101634.06
2023-04-06T13:06:46.110Z,101620.56
2023-04-06T13:09:13.073Z,101636.50
2023-04-06T13:11:42.568Z,101637.50
2023-04-06T13:14:09.748Z,101622.22
2023-04-06T13:16:37.524Z,101615.13
2023-04-06T13:19:04.536Z,101615.19
2023-04-06T13:21:31.627Z,101615.91
2023-04-06T13:24:02.089Z,101593.09
2023-04-06T13:26:29.803Z,101605.88
2023-04-06T13:28:57.874Z,101595.34
2023-04-06T13:31:24.942Z,101605.94
2023-04-06T13:33:51.985Z,101595.84
2023-04-06T13:36:18.914Z,101592.94
2023-04-06T13:38:46.455Z,101594.25
2023-04-06T13:41:22.162Z,101599.09
2023-04-06T13:43:49.559Z,101591.88
2023-04-06T13:46:16.631Z,101579.09
2023-04-06T13:48:44.532Z,101586.91
2023-04-06T13:51:12.825Z,101578.94
2023-04-06T13:53:41.726Z,101573.53
2023-04-06T13:56:09.448Z,101575.09
2023-04-06T13:58:37.457Z,101564.66
2023-04-06T14:01:11.152Z,101561.56
2023-04-06T14:03:40.729Z,101558.13
2023-04-06T14:06:20.881Z,101556.16
2023-04-06T14:08:54.501Z,101559.13
2023-04-06T14:11:21.542Z,101547.88
2023-04-06T14:13:48.580Z,101545.06
2023-04-06T14:16:16.380Z,101549.31
2023-04-06T14:18:43.801Z,101544.81
2023-04-06T14:21:10.969Z,101543.94
2023-04-06T14:23:38.253Z,101535.44
2023-04-06T14:26:06.438Z,101543.72
2023-04-06T14:28:34.681Z,101534.06
2023-04-06T14:31:05.148Z,101530.94
2023-04-06T14:33:32.475Z,101537.63
2023-04-06T14:35:59.402Z,101521.88
2023-04-06T14:38:26.408Z,101527.81
2023-04-06T14:40:53.403Z,101541.59
2023-04-06T14:43:22.999Z,101534.63
2023-04-06T14:45:50.129Z,101546.84
2023-04-06T14:48:18.612Z,101540.31
2023-04-06T14:50:58.741Z,101532.09
2023-04-06T14:53:26.172Z,101541.72
2023-04-06T14:55:53.944Z,101532.50
2023-04-06T14:58:21.450Z,101525.28
2023-04-06T15:00:48.871Z,101533.91
2023-04-06T15:03:16.741Z,101531.19
2023-04-06T15:05:43.909Z,101531.59
2023-04-06T15:08:10.948Z,101526.59
2023-04-06T15:10:37.895Z,101527.16
2023-04-06T15:13:04.865Z,101525.19
2023-04-06T15:15:31.896Z,101524.03
2023-04-06T15:17:58.985Z,101518.53
2023-04-06T15:20:26.035Z,101531.47
2023-04-06T15:22:52.967Z,101526.31
2023-04-06T15:25:19.937Z,101523.00
2023-04-06T15:27:46.871Z,101524.28
2023-04-06T15:30:14.163Z,101522.28
2023-04-06T15:32:41.414Z,101522.72
2023-04-06T15:35:13.578Z,101518.91
2023-04-06T15:37:40.528Z,101506.84
2023-04-06T15:40:08.237Z,101510.69
2023-04-06T15:42:35.291Z,101508.13
2023-04-06T15:45:02.674Z,101510.56
2023-04-06T15:47:29.688Z,101513.81
2023-04-06T15:49:56.834Z,101512.38
2023-04-06T15:52:23.885Z,101521.47
2023-04-06T15:54:50.885Z,101521.22
2023-04-06T15:57:17.832Z,101526.16
2023-04-06T15:59:44.996Z,101523.63
2023-04-06T16:02:13.216Z,101537.47
2023-04-06T16:04:40.241Z,101531.50
2023-04-06T16:07:07.229Z,101526.75
2023-04-06T16:09:34.261Z,101524.41
2023-04-06T16:12:01.643Z,101535.94
2023-04-06T16:14:28.484Z,101540.63
2023-04-06T16:16:55.486Z,101538.09
2023-04-06T16:19:22.507Z,101541.50
2023-04-06T16:21:49.585Z,101534.94
2023-04-06T16:24:16.489Z,101524.69
2023-04-06T16:26:44.673Z,101541.03
2023-04-06T16:29:11.981Z,101538.22
2023-04-06T16:31:39.012Z,101532.13
2023-04-06T16:34:06.204Z,101543.47
2023-04-06T16:36:34.003Z,101531.81
2023-04-06T16:39:02.567Z,101544.09
2023-04-06T16:41:32.439Z,101548.03
2023-04-06T16:43:59.438Z,101543.84
2023-04-06T16:46:33.655Z,101550.69
2023-04-06T16:49:01.961Z,101544.72
2023-04-06T16:51:29.355Z,101551.25
2023-04-06T16:53:56.312Z,101553.75
2023-04-06T16:56:23.161Z,101551.53
2023-04-06T16:58:50.413Z,101565.06
2023-04-06T17:01:26.430Z,101558.56
2023-04-06T17:03:54.889Z,101560.88
2023-04-06T17:06:22.420Z,101568.22
2023-04-06T17:08:51.126Z,101569.34
2023-04-06T17:11:21.641Z,101574.59
2023-04-06T17:13:52.703Z,101575.19
2023-04-06T17:16:21.073Z,101574.94
2023-04-06T17:18:48.128Z,101564.84
2023-04-06T17:21:17.078Z,101572.34
2023-04-06T17:23:44.605Z,101567.69
2023-04-06T17:26:11.676Z,101574.44
2023-04-06T17:28:38.880Z,101574.72
2023-04-06T17:31:11.095Z,101572.13
2023-04-06T17:33:39.957Z,101569.44
2023-04-06T17:36:09.952Z,101575.09
2023-04-06T17:38:37.077Z,101573.66
2023-04-06T17:41:07.615Z,101577.00
2023-04-06T17:43:34.653Z,101577.13
2023-04-06T17:46:01.815Z,101581.66
2023-04-06T17:48:30.032Z,101585.22
2023-04-06T17:50:57.042Z,101588.88
2023-04-06T17:53:24.095Z,101588.88
2023-04-06T17:55:51.140Z,101596.72
2023-04-06T17:58:18.040Z,101590.13
2023-04-06T18:00:44.905Z,101586.84
2023-04-06T18:03:12.092Z,101594.78
2023-04-06T18:05:39.788Z,101586.19
2023-04-06T18:08:06.631Z,101592.34
2023-04-06T18:10:39.170Z,101585.00
2023-04-06T18:13:07.258Z,101585.72
2023-04-06T18:15:38.409Z,101585.72
2023-04-06T18:18:07.598Z,101590.88
2023-04-06T18:20:39.893Z,101582.91
2023-04-06T18:23:06.917Z,101590.88
2023-04-06T18:25:38.625Z,101598.06
2023-04-06T18:28:06.004Z,101592.84
2023-04-06T18:30:32.871Z,101590.97
2023-04-06T18:33:00.629Z,101599.91
2023-04-06T18:38:23.895Z,101600.41
2023-04-06T18:40:51.516Z,101608.22
2023-04-06T18:43:18.508Z,101607.19
2023-04-06T18:45:45.543Z,101615.69
2023-04-06T18:48:13.851Z,101611.34
2023-04-06T18:50:41.227Z,101614.81
2023-04-06T18:53:08.501Z,101618.91
2023-04-06T18:55:36.413Z,101616.22
2023-04-06T18:58:03.294Z,101617.09
2023-04-06T19:00:30.494Z,101620.63
2023-04-06T19:02:57.488Z,101630.63
2023-04-06T19:05:24.550Z,101631.75
2023-04-06T19:07:52.809Z,101627.22
2023-04-06T19:10:20.452Z,101635.53
2023-04-06T19:12:48.105Z,101636.50
2023-04-06T19:15:15.472Z,101635.75
2023-04-06T19:17:42.692Z,101641.38
2023-04-06T19:20:10.192Z,101641.59
2023-04-06T19:22:37.981Z,101641.84
2023-04-06T19:25:06.128Z,101643.78
2023-04-06T19:27:33.144Z,101642.97
2023-04-06T19:30:00.781Z,101655.53
2023-04-06T19:32:27.833Z,101647.69
2023-04-06T19:34:54.815Z,101658.44
2023-04-06T19:37:22.113Z,101658.56
2023-04-06T19:39:49.020Z,101658.44
2023-04-06T19:42:16.113Z,101667.47
2023-04-06T19:44:43.087Z,101675.28
2023-04-06T19:47:11.987Z,101670.88
2023-04-06T19:49:40.775Z,101676.00
2023-04-06T19:52:10.152Z,101675.03
2023-04-06T19:54:38.501Z,101670.63
2023-04-06T19:57:05.686Z,101671.63
2023-04-06T19:59:34.881Z,101672.59
2023-04-06T20:02:02.381Z,101681.53
2023-04-06T20:04:29.491Z,101681.38
2023-04-06T20:06:56.456Z,101676.00
2023-04-06T20:09:24.605Z,101681.38
2023-04-06T20:11:54.071Z,101681.53
2023-04-06T20:14:22.406Z,101672.84
2023-04-06T20:16:50.769Z,101676.50
2023-04-06T20:19:19.302Z,101684.56
2023-04-06T20:21:46.900Z,101677.59
2023-04-06T20:24:14.556Z,101678.22
2023-04-06T20:26:41.653Z,101682.59
2023-04-06T20:29:08.639Z,101683.81
2023-04-06T20:31:35.585Z,101678.22
2023-04-06T20:34:02.540Z,101674.53
2023-04-06T20:36:31.376Z,101687.97
2023-04-06T20:38:58.315Z,101689.06
2023-04-06T20:41:25.410Z,101690.66
2023-04-06T20:43:52.420Z,101680.91
2023-04-06T20:46:19.407Z,101682.09
2023-04-06T20:48:46.469Z,101675.03
2023-04-06T20:51:23.326Z,101677.81
2023-04-06T20:53:50.467Z,101678.69
2023-04-06T20:56:21.930Z,101679.53
2023-04-06T20:58:49.735Z,101683.09
2023-04-06T21:01:20.046Z,101678.69
2023-04-06T21:03:46.962Z,101681.72
2023-04-06T21:06:14.248Z,101668.41
2023-04-06T21:08:41.210Z,101662.78
2023-04-06T21:11:08.588Z,101664.75
2023-04-06T21:13:36.922Z,101668.41
2023-04-06T21:16:03.979Z,101672.56
2023-04-06T21:18:32.076Z,101665.59
2023-04-06T21:20:59.478Z,101665.59
2023-04-06T21:23:26.538Z,101669.50
2023-04-06T21:25:57.005Z,101666.81
2023-04-06T21:28:25.359Z,101674.03
2023-04-06T21:30:53.665Z,101674.13
2023-04-06T21:33:20.731Z,101672.28
2023-04-06T21:35:47.838Z,101665.97
2023-04-06T21:38:14.763Z,101664.25
2023-04-06T21:40:41.836Z,101659.84
2023-04-06T21:43:09.020Z,101657.03
2023-04-06T21:45:35.990Z,101656.19
2023-04-06T21:48:03.061Z,101659.59
2023-04-06T21:50:30.043Z,101662.28
2023-04-06T21:52:57.010Z,101655.94
2023-04-06T21:55:23.910Z,101660.59
2023-04-06T21:57:51.060Z,101669.84
2023-04-06T22:00:18.662Z,101664.59
2023-04-06T22:02:46.110Z,101663.97
2023-04-06T22:05:14.593Z,101666.16
2023-04-06T22:07:42.261Z,101666.38
2023-04-06T22:10:09.244Z,101658.44
2023-04-06T22:12:37.138Z,101656.84
2023-04-06T22:15:04.327Z,101653.75
2023-04-06T22:17:34.632Z,101654.84
2023-04-06T22:20:01.711Z,101648.09
2023-04-06T22:22:28.574Z,101658.94
2023-04-06T22:24:57.976Z,101644.91
2023-04-06T22:27:26.023Z,101661.34
2023-04-06T22:29:53.106Z,101650.84
2023-04-06T22:32:20.145Z,101654.72
2023-04-06T22:34:47.337Z,101653.03
2023-04-06T22:37:14.246Z,101655.38
2023-04-06T22:39:43.077Z,101654.72
2023-04-06T22:42:09.918Z,101654.09
2023-04-06T22:44:37.072Z,101651.66
2023-04-06T22:47:04.016Z,101646.50
2023-04-06T22:49:31.072Z,101657.47
2023-04-06T22:51:57.990Z,101649.84
2023-04-06T22:54:25.016Z,101653.72
2023-04-06T22:56:51.934Z,101647.75
2023-04-06T22:59:18.980Z,101653.31
2023-04-06T23:01:45.922Z,101647.56
2023-04-06T23:04:13.099Z,101653.34
2023-04-06T23:06:40.004Z,101649.19
2023-04-06T23:09:07.048Z,101651.09
2023-04-06T23:11:34.092Z,101654.00
2023-04-06T23:14:01.500Z,101646.91
2023-04-06T23:16:28.448Z,101641.78
2023-04-06T23:18:56.355Z,101640.31
2023-04-06T23:21:23.235Z,101629.78
2023-04-06T23:23:50.175Z,101635.38
2023-04-06T23:26:17.234Z,101637.28
2023-04-06T23:28:44.084Z,101618.84
2023-04-06T23:31:11.028Z,101618.00
2023-04-06T23:33:37.985Z,101622.72
2023-04-06T23:36:05.404Z,101620.38
2023-04-06T23:38:33.963Z,101611.69
2023-04-06T23:41:01.074Z,101615.25
2023-04-06T23:43:28.005Z,101615.56
2023-04-06T23:45:54.916Z,101612.75
2023-04-06T23:48:21.936Z,101605.19
2023-04-06T23:50:48.814Z,101596.38
2023-04-06T23:53:15.764Z,101607.31
2023-04-06T23:55:42.653Z,101601.09
2023-04-06T23:58:09.530Z,101601.44
